createdAt,value
2022-09-06T00:01:01.306Z,20.90
2022-09-06T00:03:28.330Z,20.80
2022-09-06T00:05:55.206Z,20.80
2022-09-06T00:08:22.174Z,20.60
2022-09-06T00:11:00.405Z,20.50
2022-09-06T00:13:28.374Z,20.40
2022-09-06T00:15:55.281Z,20.20
2022-09-06T00:18:22.295Z,20.00
2022-09-06T00:20:49.087Z,19.70
2022-09-06T00:23:15.886Z,19.60
2022-09-06T00:25:42.655Z,19.40
2022-09-06T00:28:09.459Z,19.40
2022-09-06T00:30:36.327Z,19.30
2022-09-06T00:33:03.140Z,19.20
2022-09-06T00:35:29.990Z,19.10
2022-09-06T00:38:00.830Z,19.00
2022-09-06T00:40:29.538Z,18.90
2022-09-06T00:42:59.587Z,18.80
2022-09-06T00:45:28.141Z,18.80
2022-09-06T00:47:55.989Z,18.70
2022-09-06T00:50:22.962Z,18.60
2022-09-06T00:52:52.698Z,18.70
2022-09-06T00:55:20.709Z,18.60
2022-09-06T00:57:51.065Z,18.50
2022-09-06T01:00:19.753Z,18.40
2022-09-06T01:02:47.414Z,18.40
2022-09-06T01:05:15.239Z,18.30
2022-09-06T01:07:54.661Z,18.30
2022-09-06T01:10:36.667Z,18.30
2022-09-06T01:13:24.627Z,18.30
2022-09-06T01:16:05.759Z,18.20
2022-09-06T01:18:39.603Z,18.20
2022-09-06T01:21:25.169Z,18.10
2022-09-06T01:24:10.566Z,18.20
2022-09-06T01:27:03.230Z,18.20
2022-09-06T01:29:41.503Z,18.10
2022-09-06T01:32:31.194Z,18.10
2022-09-06T01:35:14.833Z,18.10
2022-09-06T01:37:42.023Z,18.10
2022-09-06T01:40:09.075Z,18.10
2022-09-06T01:42:36.886Z,18.00
2022-09-06T01:45:08.866Z,18.10
2022-09-06T01:47:51.410Z,18.10
2022-09-06T01:50:59.553Z,18.10
2022-09-06T01:53:43.739Z,18.20
2022-09-06T01:56:13.349Z,18.40
2022-09-06T01:59:04.508Z,18.40
2022-09-06T02:01:43.389Z,18.20
2022-09-06T02:04:14.283Z,18.20
2022-09-06T02:06:50.638Z,18.20
2022-09-06T02:09:22.086Z,18.10
2022-09-06T02:11:58.620Z,18.10
2022-09-06T02:14:40.755Z,18.00
2022-09-06T02:17:10.668Z,18.00
2022-09-06T02:19:47.828Z,18.00
2022-09-06T02:22:18.802Z,17.90
2022-09-06T02:24:47.539Z,18.00
2022-09-06T02:27:14.699Z,18.10
2022-09-06T02:29:42.023Z,18.00
2022-09-06T02:32:20.272Z,18.10
2022-09-06T02:34:47.685Z,18.00
2022-09-06T02:37:16.052Z,18.00
2022-09-06T02:39:43.238Z,18.00
2022-09-06T02:42:13.084Z,18.00
2022-09-06T02:44:40.407Z,17.80
2022-09-06T02:47:07.335Z,17.80
2022-09-06T02:49:35.217Z,17.90
2022-09-06T02:52:02.156Z,17.90
2022-09-06T02:54:28.970Z,17.90
2022-09-06T02:56:55.724Z,18.00
2022-09-06T02:59:22.605Z,17.90
2022-09-06T03:01:49.439Z,18.00
2022-09-06T03:04:16.238Z,18.10
2022-09-06T03:06:43.040Z,18.10
2022-09-06T03:09:10.491Z,18.00
2022-09-06T03:11:38.130Z,17.90
2022-09-06T03:14:05.117Z,18.00
2022-09-06T03:16:31.939Z,18.00
2022-09-06T03:18:58.749Z,18.00
2022-09-06T03:21:25.676Z,17.90
2022-09-06T03:23:52.593Z,17.90
2022-09-06T03:26:19.483Z,18.00
2022-09-06T03:28:46.529Z,18.00
2022-09-06T03:31:13.477Z,18.00
2022-09-06T03:33:40.926Z,18.00
2022-09-06T03:36:07.800Z,18.00
2022-09-06T03:38:34.589Z,18.00
2022-09-06T03:41:01.392Z,18.20
2022-09-06T03:43:28.431Z,18.20
2022-09-06T03:46:00.065Z,18.10
2022-09-06T03:48:29.470Z,18.00
2022-09-06T03:50:58.006Z,18.00
2022-09-06T03:53:26.575Z,18.00
2022-09-06T03:55:55.154Z,18.10
2022-09-06T03:58:23.665Z,18.10
2022-09-06T04:01:10.435Z,18.10
2022-09-06T04:03:38.503Z,18.10
2022-09-06T04:06:06.366Z,18.10
2022-09-06T04:08:37.307Z,18.00
2022-09-06T04:11:04.666Z,18.00
2022-09-06T04:13:32.965Z,17.90
2022-09-06T04:16:00.499Z,18.00
2022-09-06T04:18:27.682Z,17.90
2022-09-06T04:20:56.331Z,17.90
2022-09-06T04:23:25.313Z,17.90
2022-09-06T04:25:54.602Z,17.80
2022-09-06T04:28:22.574Z,17.70
2022-09-06T04:30:54.110Z,17.70
2022-09-06T04:33:21.618Z,17.60
2022-09-06T04:36:09.138Z,17.60
2022-09-06T04:38:39.961Z,17.50
2022-09-06T04:41:07.586Z,17.50
2022-09-06T04:43:34.698Z,17.40
2022-09-06T04:46:19.183Z,17.40
2022-09-06T04:48:46.821Z,17.40
2022-09-06T04:51:13.738Z,17.40
2022-09-06T04:53:40.743Z,17.30
2022-09-06T04:56:07.774Z,17.30
2022-09-06T04:58:34.581Z,17.30
2022-09-06T05:01:01.577Z,17.30
2022-09-06T05:03:28.610Z,17.40
2022-09-06T05:06:04.849Z,17.30
2022-09-06T05:08:31.750Z,17.30
2022-09-06T05:10:58.526Z,17.20
2022-09-06T05:13:25.326Z,17.20
2022-09-06T05:15:52.097Z,17.20
2022-09-06T05:18:18.882Z,17.20
2022-09-06T05:20:52.187Z,17.20
2022-09-06T05:23:19.691Z,17.20
2022-09-06T05:25:46.561Z,17.20
2022-09-06T05:28:13.519Z,17.20
2022-09-06T05:30:41.549Z,17.20
2022-09-06T05:33:09.523Z,17.30
2022-09-06T05:35:36.776Z,17.30
2022-09-06T05:38:03.720Z,17.30
2022-09-06T05:40:31.263Z,17.40
2022-09-06T05:42:58.033Z,17.50
2022-09-06T05:45:24.869Z,17.60
2022-09-06T05:47:51.698Z,17.80
2022-09-06T05:50:18.470Z,18.50
2022-09-06T05:52:45.271Z,19.50
2022-09-06T05:55:12.127Z,20.30
2022-09-06T05:57:38.938Z,21.00
2022-09-06T06:00:07.239Z,21.80
2022-09-06T06:02:38.492Z,22.40
2022-09-06T06:05:06.093Z,22.90
2022-09-06T06:07:32.997Z,23.30
2022-09-06T06:09:59.825Z,23.60
2022-09-06T06:12:26.664Z,24.10
2022-09-06T06:14:53.423Z,24.60
2022-09-06T06:17:20.283Z,25.20
2022-09-06T06:19:47.069Z,25.10
2022-09-06T06:22:13.893Z,25.10
2022-09-06T06:24:40.737Z,25.20
2022-09-06T06:27:07.585Z,25.50
2022-09-06T06:29:34.366Z,25.90
2022-09-06T06:32:01.221Z,26.10
2022-09-06T06:34:28.062Z,26.30
2022-09-06T06:36:54.932Z,26.60
2022-09-06T06:39:21.712Z,26.70
2022-09-06T06:41:50.764Z,26.90
2022-09-06T06:44:37.942Z,27.30
2022-09-06T06:47:04.931Z,27.20
2022-09-06T06:49:31.799Z,27.70
2022-09-06T06:51:58.728Z,28.10
2022-09-06T06:54:25.500Z,28.50
2022-09-06T06:56:52.362Z,28.50
2022-09-06T06:59:19.146Z,28.70
2022-09-06T07:01:46.065Z,29.00
2022-09-06T07:04:14.289Z,28.80
2022-09-06T07:12:21.665Z,29.00
2022-09-06T07:14:48.471Z,29.10
2022-09-06T07:17:15.270Z,29.10
2022-09-06T07:22:28.794Z,28.80
2022-09-06T07:24:55.566Z,29.00
2022-09-06T07:30:10.239Z,29.20
2022-09-06T07:32:37.067Z,29.50
2022-09-06T07:35:04.175Z,29.60
2022-09-06T07:37:30.930Z,29.70
2022-09-06T07:39:57.736Z,29.80
2022-09-06T07:42:24.582Z,29.70
2022-09-06T07:44:51.390Z,29.40
2022-09-06T07:53:10.933Z,30.10
2022-09-06T07:55:39.469Z,30.60
2022-09-06T07:58:06.322Z,30.40
2022-09-06T08:00:33.109Z,30.50
2022-09-06T08:02:59.894Z,30.40
2022-09-06T08:11:00.601Z,30.70
2022-09-06T08:13:27.630Z,30.90
2022-09-06T08:16:06.101Z,30.40
2022-09-06T08:18:34.075Z,30.10
2022-09-06T08:21:12.053Z,30.20
2022-09-06T08:23:42.749Z,30.30
2022-09-06T08:26:09.629Z,30.30
2022-09-06T08:28:36.644Z,30.30
2022-09-06T08:31:07.592Z,30.40
2022-09-06T08:33:35.169Z,30.60
2022-09-06T08:36:02.051Z,30.50
2022-09-06T08:38:29.422Z,30.40
2022-09-06T08:41:10.138Z,30.30
2022-09-06T08:43:38.513Z,30.40
2022-09-06T08:46:08.559Z,30.10
2022-09-06T08:48:39.791Z,30.10
2022-09-06T08:51:25.699Z,30.30
2022-09-06T08:53:55.386Z,30.30
2022-09-06T08:56:31.055Z,30.10
2022-09-06T08:59:04.788Z,29.90
2022-09-06T09:01:48.700Z,29.50
2022-09-06T09:04:21.642Z,29.40
2022-09-06T09:06:53.626Z,29.10
2022-09-06T09:09:20.470Z,28.60
2022-09-06T09:11:50.950Z,28.40
2022-09-06T09:14:24.411Z,28.00
2022-09-06T09:16:53.209Z,27.80
2022-09-06T09:19:19.985Z,27.60
2022-09-06T09:21:47.160Z,27.40
2022-09-06T09:24:15.844Z,27.30
2022-09-06T09:26:51.583Z,27.00
2022-09-06T09:29:21.699Z,26.80
2022-09-06T09:31:54.221Z,26.80
2022-09-06T09:34:33.368Z,26.90
2022-09-06T09:40:27.591Z,26.80
2022-09-06T09:43:08.952Z,26.90
2022-09-06T09:45:35.767Z,26.90
2022-09-06T09:48:21.022Z,26.80
2022-09-06T09:50:48.182Z,26.80
2022-09-06T09:53:18.388Z,26.80
2022-09-06T09:55:45.977Z,26.70
2022-09-06T09:58:32.290Z,26.70
2022-09-06T10:01:12.801Z,26.70
2022-09-06T10:09:19.340Z,26.60
2022-09-06T10:11:52.699Z,26.70
2022-09-06T10:14:49.345Z,26.80
2022-09-06T10:17:37.512Z,26.80
2022-09-06T10:20:12.758Z,26.80
2022-09-06T10:22:58.532Z,26.70
2022-09-06T10:25:39.084Z,26.70
2022-09-06T10:28:20.890Z,26.60
2022-09-06T10:31:09.447Z,26.70
2022-09-06T10:34:16.946Z,26.70
2022-09-06T10:36:48.502Z,26.60
2022-09-06T10:39:33.130Z,26.80
2022-09-06T10:42:34.270Z,26.90
2022-09-06T10:45:43.243Z,27.00
2022-09-06T10:48:44.698Z,27.00
2022-09-06T10:51:29.929Z,26.90
2022-09-06T10:54:11.090Z,26.80
2022-09-06T10:56:37.869Z,26.80
2022-09-06T11:06:06.836Z,27.00
2022-09-06T11:08:46.821Z,27.00
2022-09-06T11:11:21.463Z,26.90
2022-09-06T11:13:48.349Z,27.00
2022-09-06T11:16:21.590Z,27.20
2022-09-06T11:19:15.057Z,27.20
2022-09-06T11:22:12.191Z,27.20
2022-09-06T11:24:55.316Z,27.00
2022-09-06T11:27:31.122Z,27.00
2022-09-06T11:30:01.777Z,27.20
2022-09-06T11:32:34.280Z,27.10
2022-09-06T11:35:09.987Z,27.10
2022-09-06T11:37:41.439Z,27.00
2022-09-06T11:40:32.649Z,27.30
2022-09-06T11:43:00.108Z,27.50
2022-09-06T11:45:38.850Z,27.50
2022-09-06T11:48:24.099Z,27.50
2022-09-06T11:50:54.064Z,27.50
2022-09-06T11:53:30.982Z,27.50
2022-09-06T11:56:00.729Z,27.60
2022-09-06T11:58:27.457Z,27.50
2022-09-06T12:01:12.629Z,27.40
2022-09-06T12:04:05.219Z,27.40
2022-09-06T12:07:03.715Z,27.40
2022-09-06T12:09:33.805Z,27.50
2022-09-06T12:12:02.614Z,27.60
2022-09-06T12:14:34.151Z,27.70
2022-09-06T12:17:01.219Z,27.60
2022-09-06T12:19:44.354Z,27.50
2022-09-06T12:22:29.647Z,27.30
2022-09-06T12:25:01.455Z,27.40
2022-09-06T12:27:45.174Z,27.50
2022-09-06T12:30:29.776Z,27.50
2022-09-06T12:32:57.423Z,27.40
2022-09-06T12:38:17.208Z,27.50
2022-09-06T12:40:51.975Z,27.40
2022-09-06T12:43:20.085Z,27.50
2022-09-06T12:45:50.768Z,27.50
2022-09-06T12:48:35.398Z,27.50
2022-09-06T12:51:05.761Z,27.50
2022-09-06T12:53:34.809Z,27.60
2022-09-06T12:56:13.006Z,27.80
2022-09-06T12:58:40.533Z,27.90
2022-09-06T13:01:22.891Z,27.90
2022-09-06T13:04:09.510Z,27.80
2022-09-06T13:06:41.930Z,27.70
2022-09-06T13:09:15.804Z,27.60
2022-09-06T13:11:50.975Z,27.60
2022-09-06T13:14:25.690Z,27.70
2022-09-06T13:16:56.869Z,27.80
2022-09-06T13:19:29.854Z,27.80
2022-09-06T13:21:58.450Z,27.90
2022-09-06T13:24:42.271Z,27.80
2022-09-06T13:27:27.163Z,27.80
2022-09-06T13:30:00.894Z,27.90
2022-09-06T13:32:28.825Z,27.90
2022-09-06T13:34:58.719Z,27.90
2022-09-06T13:37:29.191Z,28.00
2022-09-06T13:39:57.484Z,27.80
2022-09-06T13:42:33.289Z,27.70
2022-09-06T13:45:24.200Z,27.60
2022-09-06T13:47:54.548Z,27.60
2022-09-06T13:50:30.282Z,27.60
2022-09-06T13:53:03.826Z,27.60
2022-09-06T13:55:33.275Z,27.80
2022-09-06T13:58:00.079Z,27.70
2022-09-06T14:00:28.037Z,27.60
2022-09-06T14:02:55.710Z,27.50
2022-09-06T14:05:22.700Z,27.50
2022-09-06T14:07:49.529Z,27.50
2022-09-06T14:10:16.539Z,27.60
2022-09-06T14:12:43.454Z,27.70
2022-09-06T14:15:10.309Z,27.70
2022-09-06T14:17:37.409Z,27.70
2022-09-06T14:20:04.723Z,27.60
2022-09-06T14:22:31.621Z,27.60
2022-09-06T14:24:58.473Z,27.50
2022-09-06T14:27:25.298Z,27.50
2022-09-06T14:29:52.096Z,27.70
2022-09-06T14:32:22.575Z,27.60
2022-09-06T14:34:49.754Z,27.70
2022-09-06T14:37:16.627Z,27.80
2022-09-06T14:39:43.570Z,27.90
2022-09-06T14:42:10.586Z,28.00
2022-09-06T14:44:37.438Z,27.90
2022-09-06T14:47:04.370Z,27.80
2022-09-06T14:49:31.515Z,27.80
2022-09-06T14:51:58.358Z,27.70
2022-09-06T14:54:29.093Z,27.70
2022-09-06T14:56:56.538Z,27.70
2022-09-06T14:59:23.455Z,27.60
2022-09-06T15:01:50.384Z,27.60
2022-09-06T15:04:18.043Z,27.60
2022-09-06T15:06:47.307Z,27.70
2022-09-06T15:09:16.160Z,27.70
2022-09-06T15:11:49.002Z,27.60
2022-09-06T15:14:19.023Z,27.60
2022-09-06T15:16:48.989Z,27.60
2022-09-06T15:19:23.466Z,27.60
2022-09-06T15:21:50.962Z,27.60
2022-09-06T15:24:18.093Z,27.50
2022-09-06T15:26:45.151Z,27.40
2022-09-06T15:29:13.041Z,27.40
2022-09-06T15:31:41.930Z,27.40
2022-09-06T15:34:09.890Z,27.40
2022-09-06T15:36:37.812Z,27.40
2022-09-06T15:39:05.695Z,27.40
2022-09-06T15:41:35.713Z,27.40
2022-09-06T15:44:10.037Z,27.30
2022-09-06T15:46:44.650Z,27.40
2022-09-06T15:49:15.178Z,27.50
2022-09-06T15:51:42.896Z,27.40
2022-09-06T15:54:12.250Z,27.30
2022-09-06T15:56:39.124Z,27.10
2022-09-06T15:59:06.174Z,27.10
2022-09-06T16:01:36.777Z,27.00
2022-09-06T16:04:06.202Z,27.00
2022-09-06T16:06:36.971Z,27.00
2022-09-06T16:09:09.736Z,27.00
2022-09-06T16:11:37.817Z,26.90
2022-09-06T16:14:06.464Z,26.90
2022-09-06T16:16:34.989Z,27.20
2022-09-06T16:19:02.882Z,27.30
2022-09-06T16:21:32.287Z,27.20
2022-09-06T16:24:08.141Z,27.10
2022-09-06T16:26:37.577Z,27.20
2022-09-06T16:29:06.866Z,27.30
2022-09-06T16:31:39.768Z,27.20
2022-09-06T16:34:07.849Z,27.10
2022-09-06T16:36:34.852Z,27.00
2022-09-06T16:39:02.141Z,26.90
2022-09-06T16:41:39.595Z,26.90
2022-09-06T16:44:07.975Z,26.70
2022-09-06T16:46:35.227Z,26.70
2022-09-06T16:49:03.247Z,26.70
2022-09-06T16:51:34.061Z,26.60
2022-09-06T16:54:01.284Z,26.60
2022-09-06T16:56:33.215Z,26.50
2022-09-06T16:59:01.634Z,26.50
2022-09-06T17:01:29.947Z,26.50
2022-09-06T17:03:57.598Z,26.50
2022-09-06T17:06:24.948Z,26.50
2022-09-06T17:08:52.163Z,26.40
2022-09-06T17:11:21.606Z,26.30
2022-09-06T17:13:50.805Z,26.20
2022-09-06T17:16:38.094Z,26.20
2022-09-06T17:19:07.211Z,26.30
2022-09-06T17:21:34.355Z,26.50
2022-09-06T17:24:05.377Z,26.60
2022-09-06T17:26:34.691Z,26.70
2022-09-06T17:29:01.723Z,26.70
2022-09-06T17:31:28.728Z,26.60
2022-09-06T17:33:56.339Z,26.50
2022-09-06T17:36:26.939Z,26.50
2022-09-06T17:39:00.602Z,26.40
2022-09-06T17:41:31.051Z,26.30
2022-09-06T17:43:58.746Z,26.20
2022-09-06T17:46:28.922Z,26.20
2022-09-06T17:48:56.627Z,26.00
2022-09-06T17:51:24.807Z,26.00
2022-09-06T17:53:52.441Z,26.00
2022-09-06T17:56:20.323Z,25.80
2022-09-06T17:58:55.499Z,25.50
2022-09-06T18:01:24.221Z,25.20
2022-09-06T18:03:52.179Z,24.90
2022-09-06T18:06:24.738Z,24.70
2022-09-06T18:08:54.047Z,24.60
2022-09-06T18:11:26.814Z,24.70
2022-09-06T18:13:59.248Z,24.80
2022-09-06T18:16:28.001Z,24.80
2022-09-06T18:19:00.331Z,24.90
2022-09-06T18:21:29.204Z,24.90
2022-09-06T18:23:56.888Z,24.90
2022-09-06T18:26:24.875Z,25.00
2022-09-06T18:28:53.683Z,24.90
2022-09-06T18:31:22.882Z,24.90
2022-09-06T18:33:50.715Z,24.80
2022-09-06T18:36:19.765Z,24.90
2022-09-06T18:38:46.795Z,24.90
2022-09-06T18:41:34.062Z,24.90
2022-09-06T18:44:03.221Z,24.80
2022-09-06T18:46:31.713Z,24.70
2022-09-06T18:48:58.963Z,24.60
2022-09-06T18:51:26.562Z,24.60
2022-09-06T18:53:55.078Z,24.50
2022-09-06T18:56:22.048Z,24.40
2022-09-06T18:58:49.063Z,24.40
2022-09-06T19:01:17.825Z,24.40
2022-09-06T19:03:45.084Z,24.40
2022-09-06T19:06:17.892Z,24.30
2022-09-06T19:08:46.566Z,24.20
2022-09-06T19:11:16.978Z,24.20
2022-09-06T19:13:45.418Z,24.20
2022-09-06T19:16:13.940Z,24.20
2022-09-06T19:18:41.857Z,24.10
2022-09-06T19:21:17.626Z,24.00
2022-09-06T19:23:46.782Z,24.00
2022-09-06T19:26:19.433Z,23.90
2022-09-06T19:28:53.163Z,23.80
2022-09-06T19:31:20.514Z,23.80
2022-09-06T19:33:49.525Z,23.70
2022-09-06T19:36:18.232Z,23.60
2022-09-06T19:39:03.167Z,23.50
2022-09-06T19:41:32.916Z,23.30
2022-09-06T19:44:00.256Z,23.30
2022-09-06T19:46:27.985Z,23.30
2022-09-06T19:48:58.372Z,23.30
2022-09-06T19:51:25.284Z,23.30
2022-09-06T19:54:00.326Z,23.30
2022-09-06T19:56:33.344Z,23.30
2022-09-06T19:59:08.616Z,23.30
2022-09-06T20:01:37.946Z,23.20
2022-09-06T20:04:07.519Z,23.20
2022-09-06T20:06:35.645Z,23.20
2022-09-06T20:09:05.314Z,23.10
2022-09-06T20:11:34.898Z,23.20
2022-09-06T20:14:02.240Z,23.20
2022-09-06T20:16:30.461Z,23.20
2022-09-06T20:18:59.083Z,23.20
2022-09-06T20:21:30.224Z,23.20
2022-09-06T20:23:59.251Z,23.20
2022-09-06T20:26:28.551Z,23.10
2022-09-06T20:28:59.934Z,23.20
2022-09-06T20:31:28.677Z,23.20
2022-09-06T20:33:56.245Z,23.10
2022-09-06T20:36:23.316Z,23.00
2022-09-06T20:38:50.966Z,23.10
2022-09-06T20:41:20.601Z,23.00
2022-09-06T20:43:58.272Z,23.00
2022-09-06T20:46:27.888Z,23.10
2022-09-06T20:48:57.962Z,23.10
2022-09-06T20:51:25.996Z,23.00
2022-09-06T20:53:57.851Z,22.90
2022-09-06T20:56:31.005Z,22.80
2022-09-06T20:59:00.763Z,22.80
2022-09-06T21:01:31.017Z,22.80
2022-09-06T21:03:59.649Z,22.80
2022-09-06T21:06:28.602Z,22.80
2022-09-06T21:08:56.666Z,22.80
2022-09-06T21:11:24.027Z,22.90
2022-09-06T21:13:53.021Z,22.90
2022-09-06T21:16:24.725Z,22.90
2022-09-06T21:18:59.797Z,22.90
2022-09-06T21:21:29.073Z,23.00
2022-09-06T21:23:56.177Z,23.00
2022-09-06T21:26:23.560Z,23.10
2022-09-06T21:28:50.626Z,23.10
2022-09-06T21:31:23.119Z,23.10
2022-09-06T21:33:55.372Z,23.20
2022-09-06T21:36:36.704Z,23.30
2022-09-06T21:39:12.978Z,23.30
2022-09-06T21:41:41.522Z,23.20
2022-09-06T21:44:09.230Z,23.20
2022-09-06T21:46:37.823Z,23.20
2022-09-06T21:49:10.153Z,23.20
2022-09-06T21:51:37.049Z,23.30
2022-09-06T21:54:04.456Z,23.30
2022-09-06T21:56:34.123Z,23.30
2022-09-06T21:59:01.555Z,23.30
2022-09-06T22:01:31.657Z,23.30
2022-09-06T22:03:59.121Z,23.10
2022-09-06T22:06:28.902Z,22.90
2022-09-06T22:08:57.737Z,22.70
2022-09-06T22:11:27.350Z,22.50
2022-09-06T22:13:57.770Z,22.40
2022-09-06T22:16:24.894Z,22.40
2022-09-06T22:18:51.826Z,22.40
2022-09-06T22:21:21.092Z,22.40
2022-09-06T22:24:15.780Z,22.40
2022-09-06T22:26:43.014Z,22.50
2022-09-06T22:29:12.172Z,22.60
2022-09-06T22:31:39.739Z,22.70
2022-09-06T22:34:07.046Z,22.70
2022-09-06T22:36:34.022Z,22.70
2022-09-06T22:39:00.933Z,22.70
2022-09-06T22:41:30.589Z,22.60
2022-09-06T22:44:00.023Z,22.60
2022-09-06T22:46:26.925Z,22.70
2022-09-06T22:48:54.227Z,22.70
2022-09-06T22:51:21.165Z,22.60
2022-09-06T22:53:48.034Z,22.60
2022-09-06T22:56:14.893Z,22.50
2022-09-06T22:58:41.766Z,22.40
2022-09-06T23:01:14.372Z,22.20
2022-09-06T23:03:42.619Z,21.70
2022-09-06T23:06:10.366Z,21.20
2022-09-06T23:08:39.002Z,20.70
2022-09-06T23:11:11.844Z,20.30
2022-09-06T23:13:39.258Z,19.90
2022-09-06T23:16:08.368Z,19.70
2022-09-06T23:18:35.402Z,19.40
2022-09-06T23:21:10.534Z,19.30
2022-09-06T23:23:40.768Z,19.10
2022-09-06T23:26:12.938Z,18.90
2022-09-06T23:28:40.163Z,18.80
2022-09-06T23:31:09.141Z,18.70
2022-09-06T23:33:36.927Z,18.70
2022-09-06T23:36:06.002Z,18.60
2022-09-06T23:38:34.833Z,18.60
2022-09-06T23:41:02.383Z,18.50
2022-09-06T23:43:29.399Z,18.50
2022-09-06T23:45:56.357Z,18.50
2022-09-06T23:48:23.483Z,18.50
2022-09-06T23:50:50.724Z,18.50
2022-09-06T23:53:18.271Z,18.50
2022-09-06T23:55:45.454Z,18.40
2022-09-06T23:58:12.462Z,18.30
